LFRI

La Roche-sur-Yon Airport

Airport
ICAO code
LFRI
IATA Code
EDM
Summary
ICAO Region
EUR
ICAO Territory
Location

, Pays de la Loire

Serving
La Roche-sur-yon
Elevation
299 ft
Coordinates
46° 42' 7" N , 1° 22' 43" W
Metar
LFRI 181200Z AUTO VRB02KT 9999 BKN041 BKN048 OVC068 19/12 Q1012 TEMPO 4000 SHRA SCT030CB

Runways

Designator Length Width Surface Rops
10/28 1550 30 ASP No/No

Airport map

Aerial View

SKYbrary Partners:

Safety knowledge contributed by: